Terminal Aerodrome Forecast
Issued by NWS

Home | Current Version | Previous Version | Text Only | Print | Product List | Glossary On
Versions: 1 2 3 4 5 6 7 8 9 10 11 12 13 14
000
FTUS45 KSLC 061724
TAFBCE
TAF
KBCE 061724Z 0618/0718 17007KT P6SM SCT080 BKN120
     FM062000 25015G25KT P6SM SCT080 SCT150
     FM070500 32010KT P6SM BKN080
     FM071500 36010G18KT P6SM SCT080=

USA.gov is the U.S. government's official web portal to all federal, state and local government web resources and services.